Time;durP1;ratioP1;P1;durP2;ratioP2;P2;SDS_P1;SDS_P2;PMS_P1;PMS_P2;Temp;Humidity;BMP_temperature;BMP_pressure;BME280_temperature;BME280_humidity;BME280_pressure;Samples;Min_cycle;Max_cycle;Signal;HPM_P1;HPM_P2
2022/12/02 00:01:49;;;;;;;30.92;16.75;;;;;;;-2.01;77.84;101608.95;1756240;81;25563;-71
2022/12/02 00:04:24;;;;;;;28.55;16.45;;;;;;;-2.01;77.84;101604.13;1712458;82;25564;-71
2022/12/02 00:06:55;;;;;;;36.68;19.05;;;;;;;-2.02;77.94;101605.16;1712331;83;25747;-71
2022/12/02 00:09:33;;;;;;;31.77;17.07;;;;;;;-2.01;78.01;101602.80;1712452;83;27324;-71
2022/12/02 00:12:14;;;;;;;31.10;16.17;;;;;;;-2.03;78.11;101601.67;1720185;83;25537;-69
2022/12/02 00:14:40;;;;;;;28.55;15.72;;;;;;;-2.02;77.90;101598.53;1702817;82;25853;-70
2022/12/02 00:17:06;;;;;;;26.87;15.53;;;;;;;-2.02;77.86;101598.53;1710246;83;26154;-71
2022/12/02 00:19:32;;;;;;;28.77;15.72;;;;;;;-2.05;77.83;101597.08;1710317;83;25533;-70
2022/12/02 00:21:58;;;;;;;31.50;16.25;;;;;;;-2.06;77.93;101590.12;1712561;83;27383;-70
2022/12/02 00:24:25;;;;;;;26.07;14.58;;;;;;;-2.04;77.89;101598.73;1712514;83;25551;-70
2022/12/02 00:26:51;;;;;;;30.90;16.25;;;;;;;-2.03;78.02;101595.04;1712572;83;25607;-70
2022/12/02 00:29:19;;;;;;;29.80;14.93;;;;;;;-2.01;78.00;101594.37;1712556;83;25690;-70
2022/12/02 00:31:45;;;;;;;28.05;15.05;;;;;;;-1.97;78.12;101600.91;1712503;83;25526;-70
2022/12/02 00:34:11;;;;;;;30.77;15.60;;;;;;;-1.97;77.91;101592.14;1721073;81;28074;-70
2022/12/02 00:36:37;;;;;;;28.42;15.40;;;;;;;-1.99;77.75;101591.01;1717621;83;25668;-69
2022/12/02 00:39:04;;;;;;;31.68;15.68;;;;;;;-1.99;77.82;101595.47;1717702;81;25660;-69
2022/12/02 00:41:30;;;;;;;32.13;15.88;;;;;;;-2.00;77.76;101591.20;1717679;83;25703;-69
2022/12/02 00:46:41;;;;;;;27.65;15.58;;;;;;;-2.02;77.74;101597.21;1717738;83;27366;-68
2022/12/02 00:49:13;;;;;;;27.22;14.60;;;;;;;-2.02;77.78;101595.88;1717561;83;25572;-68
2022/12/02 00:51:43;;;;;;;28.02;15.13;;;;;;;-2.02;77.93;101599.86;1725176;82;25403;-68
2022/12/02 00:54:12;;;;;;;29.55;14.90;;;;;;;-2.00;77.89;101602.62;1717649;83;25655;-68
2022/12/02 00:56:40;;;;;;;31.02;15.38;;;;;;;-1.98;77.97;101593.95;1717866;83;25424;-69
2022/12/02 00:59:07;;;;;;;26.40;15.68;;;;;;;-1.96;77.95;101602.56;1725188;83;29511;-68
2022/12/02 01:01:35;;;;;;;27.77;14.93;;;;;;;-1.98;77.86;101595.80;1717564;83;25612;-68
2022/12/02 01:04:04;;;;;;;25.62;16.10;;;;;;;-1.96;77.76;101593.28;1702605;83;25499;-69
2022/12/02 01:06:30;;;;;;;32.10;15.75;;;;;;;-1.96;77.86;101594.61;1756448;81;27856;-69
2022/12/02 01:08:56;;;;;;;26.57;14.90;;;;;;;-1.95;77.93;101594.09;1717708;82;25560;-69
2022/12/02 01:11:24;;;;;;;30.23;15.67;;;;;;;-1.92;77.98;101594.52;1717673;81;27390;-69
2022/12/02 01:13:50;;;;;;;28.02;14.50;;;;;;;-1.92;77.85;101589.73;1724986;83;25520;-69
2022/12/02 01:16:17;;;;;;;29.87;14.33;;;;;;;-1.94;77.68;101591.25;1756288;81;25661;-69
2022/12/02 01:18:43;;;;;;;27.13;14.87;;;;;;;-1.94;77.73;101592.58;1687328;85;25641;-68
2022/12/02 01:21:09;;;;;;;28.90;15.13;;;;;;;-1.93;77.80;101586.23;1751150;82;25402;-68
2022/12/02 01:23:35;;;;;;;23.52;14.25;;;;;;;-1.93;77.74;101590.22;1751151;82;27385;-68
2022/12/02 01:26:01;;;;;;;28.92;15.20;;;;;;;-1.92;77.71;101585.75;1751045;82;25631;-68
2022/12/02 01:28:28;;;;;;;29.60;14.63;;;;;;;-1.91;77.62;101587.38;1751171;82;25597;-68
2022/12/02 01:30:54;;;;;;;26.77;15.18;;;;;;;-1.93;77.57;101588.08;1751044;82;25668;-68
2022/12/02 01:33:20;;;;;;;29.12;14.95;;;;;;;-1.91;77.44;101587.38;1717729;83;25557;-68
2022/12/02 01:35:46;;;;;;;28.40;15.73;;;;;;;-1.93;77.43;101582.77;1715370;82;27394;-68
2022/12/02 01:38:12;;;;;;;24.27;15.05;;;;;;;-1.92;77.41;101587.08;1714455;83;25436;-68
2022/12/02 01:40:41;;;;;;;28.70;15.03;;;;;;;-1.94;77.25;101584.62;1714565;83;25680;-68
2022/12/02 01:43:07;;;;;;;28.47;15.18;;;;;;;-1.95;77.24;101580.31;1714542;83;25671;-69
2022/12/02 01:45:33;;;;;;;29.95;15.53;;;;;;;-1.94;77.28;101575.82;1706957;84;25557;-69
2022/12/02 01:48:02;;;;;;;31.07;15.43;;;;;;;-1.94;77.14;101576.66;1706594;84;27347;-68
2022/12/02 01:50:31;;;;;;;28.73;15.63;;;;;;;-1.97;76.75;101569.60;1696829;84;25377;-69
2022/12/02 01:52:59;;;;;;;28.80;15.17;;;;;;;-2.01;76.66;101566.52;1697059;83;25594;-69
2022/12/02 01:55:27;;;;;;;32.20;15.75;;;;;;;-2.03;76.83;101564.55;1696736;83;25629;-69
2022/12/02 01:57:57;;;;;;;26.70;14.60;;;;;;;-2.03;76.77;101566.39;1696826;84;25560;-69
2022/12/02 02:00:28;;;;;;;28.20;14.33;;;;;;;-2.06;76.67;101564.93;1696956;83;27293;-69
2022/12/02 02:02:56;;;;;;;27.02;14.68;;;;;;;-2.07;76.86;101560.14;1696798;83;25415;-69
2022/12/02 02:05:27;;;;;;;30.95;15.23;;;;;;;-2.06;77.03;101564.93;1696809;84;25439;-71
2022/12/02 02:07:58;;;;;;;29.80;14.28;;;;;;;-2.05;77.06;101553.33;1696815;84;26129;-70
2022/12/02 02:10:27;;;;;;;27.87;15.10;;;;;;;-2.03;76.96;101560.57;1696819;84;25432;-71
2022/12/02 02:12:55;;;;;;;27.60;14.33;;;;;;;-2.06;76.78;101556.98;1697064;83;28149;-71
2022/12/02 02:15:23;;;;;;;22.77;13.88;;;;;;;-2.04;76.91;101561.60;1696717;83;25392;-71
2022/12/02 02:17:54;;;;;;;28.25;14.60;;;;;;;-2.01;76.85;101564.36;1714530;83;25628;-71
2022/12/02 02:20:24;;;;;;;28.20;15.03;;;;;;;-2.02;76.94;101556.92;1714544;83;25718;-71
2022/12/02 02:23:08;;;;;;;27.85;14.40;;;;;;;-2.00;77.02;101559.37;1696630;84;25399;-70
2022/12/02 02:25:40;;;;;;;28.23;14.30;;;;;;;-1.97;77.12;101557.67;1696677;84;27540;-70
2022/12/02 02:28:08;;;;;;;27.98;16.12;;;;;;;-1.94;77.15;101555.93;1706848;83;25597;-70
2022/12/02 02:30:36;;;;;;;30.27;16.62;;;;;;;-1.91;77.16;101556.39;1684407;85;25600;-70
2022/12/02 02:33:07;;;;;;;30.45;16.60;;;;;;;-1.91;77.07;101549.76;1696395;84;25624;-70
2022/12/02 02:35:36;;;;;;;30.48;16.67;;;;;;;-1.87;77.03;101556.81;1731574;80;25539;-70
2022/12/02 02:38:07;;;;;;;29.63;17.60;;;;;;;-1.89;76.80;101553.03;1749479;80;27365;-70
2022/12/02 02:40:36;;;;;;;31.42;16.65;;;;;;;-1.89;76.81;101546.88;1748416;80;25543;-70
2022/12/02 02:43:04;;;;;;;32.45;17.48;;;;;;;-1.91;76.76;101547.59;1748461;80;25425;-70
2022/12/02 02:45:34;;;;;;;27.67;16.12;;;;;;;-1.94;76.73;101547.48;1748444;80;25778;-69
2022/12/02 02:48:06;;;;;;;43.75;18.00;;;;;;;-1.89;76.91;101542.91;1748594;82;25441;-70
2022/12/02 02:50:36;;;;;;;30.68;16.23;;;;;;;-1.89;76.73;101553.03;1748337;81;27313;-70
2022/12/02 02:53:04;;;;;;;34.18;16.05;;;;;;;-1.90;76.72;101546.59;1748394;82;25550;-69
2022/12/02 02:55:33;;;;;;;33.30;16.67;;;;;;;-1.91;76.63;101547.11;1717568;83;25401;-69
2022/12/02 02:58:20;;;;;;;32.80;17.70;;;;;;;-1.91;76.72;101551.08;1717816;82;25635;-70
2022/12/02 03:01:16;;;;;;;31.55;17.70;;;;;;;-1.89;76.83;101555.67;1663911;84;25600;-70
2022/12/02 03:03:53;;;;;;;41.85;18.87;;;;;;;-1.90;76.73;101547.40;1678371;85;27331;-70
2022/12/02 03:06:23;;;;;;;32.25;18.87;;;;;;;-1.89;76.85;101548.20;1678540;85;25649;-70
2022/12/02 03:08:52;;;;;;;34.23;17.60;;;;;;;-1.87;76.90;101544.88;1678596;85;25599;-71
2022/12/02 03:11:18;;;;;;;35.13;18.57;;;;;;;-1.92;76.59;101536.17;1678665;85;26464;-71
2022/12/02 03:13:48;;;;;;;37.15;18.30;;;;;;;-1.95;76.60;101541.05;1655538;85;25520;-70
2022/12/02 03:16:20;;;;;;;31.27;17.07;;;;;;;-1.95;76.62;101529.12;1655507;85;27164;-71
2022/12/02 03:18:50;;;;;;;33.08;17.37;;;;;;;-1.97;76.64;101534.61;1678464;85;25450;-71
2022/12/02 03:21:20;;;;;;;36.40;18.98;;;;;;;-1.99;76.82;101535.32;1678504;85;25446;-71
2022/12/02 03:23:50;;;;;;;37.80;19.25;;;;;;;-1.98;76.89;101535.61;1678430;85;26430;-71
2022/12/02 03:26:18;;;;;;;38.85;17.75;;;;;;;-2.00;76.81;101536.84;1678522;85;25666;-70
2022/12/02 03:32:47;;;;;;;;;;;;;;;-2.00;76.87;101529.70;1680926;85;25437;-71
2022/12/02 03:35:14;;;;;;;;;;;;;;;-2.02;76.90;101531.73;1680186;85;25565;-71
2022/12/02 03:37:42;;;;;;;31.73;17.02;;;;;;;-2.04;76.98;101529.78;1680288;84;25719;-71
2022/12/02 03:40:11;;;;;;;35.55;17.37;;;;;;;-2.07;76.97;101525.67;1695639;82;25568;-71
2022/12/02 03:42:39;;;;;;;33.00;17.75;;;;;;;-2.08;77.00;101530.69;1747951;81;27937;-70
2022/12/02 03:45:10;;;;;;;33.00;16.73;;;;;;;-2.07;76.97;101530.16;1750266;80;25540;-71
2022/12/02 03:47:39;;;;;;;28.73;15.08;;;;;;;-2.09;76.97;101529.55;1753792;81;25415;-69
2022/12/02 03:50:09;;;;;;;18.17;10.00;;;;;;;-2.08;77.03;101525.86;1753805;81;25621;-71
2022/12/02 03:52:37;;;;;;;29.05;13.55;;;;;;;-2.10;76.79;101528.70;1753755;81;25564;-71
2022/12/02 03:55:06;;;;;;;32.95;16.15;;;;;;;-2.11;76.85;101535.53;1753723;81;28082;-70
2022/12/02 03:57:35;;;;;;;31.23;15.03;;;;;;;-2.08;76.86;101539.13;1753777;81;25457;-70
2022/12/02 04:00:04;;;;;;;34.20;15.58;;;;;;;-2.09;76.70;101533.52;1753717;81;25537;-69
2022/12/02 04:02:32;;;;;;;25.25;13.40;;;;;;;-2.10;76.86;101535.34;1753872;81;34702;-69
2022/12/02 04:04:58;;;;;;;34.90;16.82;;;;;;;-2.06;76.75;101537.09;1753746;81;25436;-70
2022/12/02 04:07:24;;;;;;;32.13;16.40;;;;;;;-2.07;76.71;101538.13;1761441;81;27437;-70
2022/12/02 04:09:51;;;;;;;27.80;16.20;;;;;;;-2.10;76.70;101525.25;1735068;82;25598;-70
2022/12/02 04:12:17;;;;;;;29.95;17.20;;;;;;;-2.06;76.74;101531.78;1753634;81;25435;-69
2022/12/02 04:14:43;;;;;;;30.10;16.25;;;;;;;-2.09;76.64;101525.57;1761437;81;25672;-69
2022/12/02 04:17:10;;;;;;;35.92;16.55;;;;;;;-2.09;76.69;101526.89;1735174;82;25468;-69
2022/12/02 04:19:38;;;;;;;32.70;16.23;;;;;;;-2.11;76.73;101523.11;1691541;83;27346;-69
2022/12/02 04:22:06;;;;;;;33.02;16.73;;;;;;;-2.10;76.69;101527.89;1758956;81;25764;-69
2022/12/02 04:24:32;;;;;;;34.90;17.82;;;;;;;-2.10;76.72;101527.89;1753708;81;25606;-70
2022/12/02 04:26:58;;;;;;;38.08;19.62;;;;;;;-2.12;76.47;101523.30;1753706;81;26262;-70
2022/12/02 04:29:24;;;;;;;29.95;15.88;;;;;;;-2.16;76.44;101521.55;1722143;83;25426;-70
2022/12/02 04:31:50;;;;;;;30.32;16.77;;;;;;;-2.18;76.19;101522.73;1729287;81;27350;-70
2022/12/02 04:34:17;;;;;;;30.20;16.80;;;;;;;-2.22;76.25;101518.85;1758998;81;25529;-70
2022/12/02 04:36:43;;;;;;;34.05;16.15;;;;;;;-2.24;76.29;101515.58;1759056;81;25548;-69
2022/12/02 04:39:09;;;;;;;28.32;15.28;;;;;;;-2.26;76.23;101514.45;1722125;83;25727;-69
2022/12/02 04:41:35;;;;;;;42.93;16.57;;;;;;;-2.34;75.92;101516.73;1759136;81;25557;-69
2022/12/02 04:44:03;;;;;;;29.63;15.95;;;;;;;-2.37;76.10;101514.97;1753695;81;27364;-69
2022/12/02 04:46:29;;;;;;;30.05;15.23;;;;;;;-2.39;76.19;101523.11;1748731;80;25425;-70
2022/12/02 04:48:55;;;;;;;28.92;15.40;;;;;;;-2.41;76.20;101523.81;1748576;80;25622;-70
2022/12/02 04:51:22;;;;;;;32.50;17.10;;;;;;;-2.44;76.13;101521.55;1748381;80;25682;-70
2022/12/02 04:53:48;;;;;;;33.33;17.40;;;;;;;-2.45;76.14;101523.38;1748489;80;25563;-71
2022/12/02 04:56:14;;;;;;;29.35;16.73;;;;;;;-2.45;76.33;101524.70;1717601;83;27331;-70
2022/12/02 04:58:40;;;;;;;31.80;16.85;;;;;;;-2.45;76.41;101518.59;1717668;81;25548;-70
2022/12/02 05:01:06;;;;;;;32.98;16.42;;;;;;;-2.45;76.45;101518.08;1717782;83;25699;-70
2022/12/02 05:03:33;;;;;;;30.27;14.75;;;;;;;-2.43;76.50;101527.17;1725188;83;25576;-71
2022/12/02 05:05:59;;;;;;;31.70;15.68;;;;;;;-2.43;76.36;101524.52;1756369;81;25201;-70
2022/12/02 05:08:25;;;;;;;29.07;15.75;;;;;;;-2.43;76.36;101525.84;1717741;83;27413;-70
2022/12/02 05:10:52;;;;;;;26.50;14.80;;;;;;;-2.44;76.28;101526.84;1725103;83;25552;-70
2022/12/02 05:13:18;;;;;;;30.00;15.03;;;;;;;-2.44;76.32;101534.28;1756332;81;25620;-70
2022/12/02 05:15:44;;;;;;;26.85;14.95;;;;;;;-2.42;76.25;101527.98;1722862;83;25704;-72
2022/12/02 05:18:10;;;;;;;29.70;15.75;;;;;;;-2.45;76.20;101525.22;1717804;82;25548;-72
2022/12/02 05:20:37;;;;;;;29.85;16.40;;;;;;;-2.44;76.29;101525.00;1717731;83;27401;-71
2022/12/02 05:23:03;;;;;;;39.67;16.85;;;;;;;-2.46;76.14;101531.01;1725109;83;25469;-71
2022/12/02 05:25:29;;;;;;;32.13;16.82;;;;;;;-2.46;76.21;101529.69;1717731;83;25692;-71
2022/12/02 05:27:55;;;;;;;28.62;14.90;;;;;;;-2.45;76.17;101525.22;1717703;83;25604;-70
2022/12/02 05:30:22;;;;;;;25.40;14.83;;;;;;;-2.47;75.73;101524.57;1717781;83;25472;-70
2022/12/02 05:32:48;;;;;;;32.00;15.68;;;;;;;-2.52;75.67;101529.63;1717709;83;27325;-71
2022/12/02 05:35:14;;;;;;;30.05;15.50;;;;;;;-2.55;75.82;101530.03;1717663;83;25550;-70
2022/12/02 05:37:40;;;;;;;28.20;15.68;;;;;;;-2.53;76.00;101524.03;1717730;82;25654;-70
2022/12/02 05:40:09;;;;;;;29.35;15.80;;;;;;;-2.54;76.14;101526.36;1725146;83;25683;-70
2022/12/02 05:42:36;;;;;;;26.45;14.60;;;;;;;-2.51;76.19;101529.44;1756385;81;25630;-69
2022/12/02 05:45:16;;;;;;;26.80;14.85;;;;;;;-2.50;76.20;101530.28;1723213;81;27408;-73
2022/12/02 05:47:51;;;;;;;32.28;16.27;;;;;;;-2.48;76.26;101526.92;1750646;80;25389;-73
2022/12/02 05:50:20;;;;;;;30.27;14.63;;;;;;;-2.47;76.11;101541.31;1750706;81;25462;-70
2022/12/02 05:52:51;;;;;;;21.97;11.57;;;;;;;-2.54;75.68;101531.66;1751239;80;25686;-70
2022/12/02 05:55:19;;;;;;;26.57;13.75;;;;;;;-2.61;75.74;101531.59;1750622;81;25442;-70
2022/12/02 05:57:48;;;;;;;27.98;15.28;;;;;;;-2.61;75.80;101542.70;1751206;80;27863;-69
2022/12/02 06:00:23;;;;;;;28.73;14.10;;;;;;;-2.66;75.72;101537.97;1743584;82;25706;-69
2022/12/02 06:03:01;;;;;;;30.00;15.38;;;;;;;-2.69;75.98;101541.00;1745864;81;25639;-69
2022/12/02 06:05:38;;;;;;;29.10;13.35;;;;;;;-2.68;76.11;101543.45;1745839;82;25647;-70
2022/12/02 06:08:25;;;;;;;27.58;13.83;;;;;;;-2.68;76.12;101545.30;1745897;82;25374;-70
2022/12/02 06:11:03;;;;;;;27.73;12.98;;;;;;;-2.70;76.27;101556.08;1745027;81;27869;-69
2022/12/02 06:13:36;;;;;;;29.63;14.58;;;;;;;-2.67;76.30;101557.55;1744895;81;25884;-72
2022/12/02 06:16:07;;;;;;;28.87;15.93;;;;;;;-2.67;76.32;101562.33;1745532;81;25451;-70
2022/12/02 06:18:35;;;;;;;29.72;15.45;;;;;;;-2.68;76.34;101565.97;1745812;82;25750;-70
2022/12/02 06:21:07;;;;;;;30.80;16.15;;;;;;;-2.66;76.44;101561.30;1720561;82;25476;-70
2022/12/02 06:23:33;;;;;;;30.60;16.40;;;;;;;-2.67;76.41;101561.00;1745414;81;27324;-69
2022/12/02 06:26:00;;;;;;;30.40;16.15;;;;;;;-2.67;76.38;101564.16;1745827;82;25525;-70
2022/12/02 06:28:38;;;;;;;29.82;16.17;;;;;;;-2.66;76.45;101567.11;1745912;82;25635;-71
2022/12/02 06:31:14;;;;;;;32.70;15.80;;;;;;;-2.66;76.44;101565.27;1745407;81;26161;-71
2022/12/02 06:33:44;;;;;;;32.98;16.10;;;;;;;-2.68;76.29;101563.33;1745899;81;25398;-72
2022/12/02 06:36:21;;;;;;;36.95;17.37;;;;;;;-2.67;76.51;101569.47;1745963;81;27873;-72
2022/12/02 06:38:55;;;;;;;36.13;17.25;;;;;;;-2.66;76.70;101569.25;1732360;82;25833;-72
2022/12/02 06:41:26;;;;;;;29.77;15.70;;;;;;;-2.63;76.72;101578.14;1745122;82;25577;-72
2022/12/02 06:46:54;;;;;;;34.75;15.43;;;;;;;-2.63;76.68;101575.50;1752707;81;25564;-71
2022/12/02 06:49:31;;;;;;;29.23;18.07;;;;;;;-2.63;76.67;101578.66;1753815;81;27285;-70
2022/12/02 06:52:02;;;;;;;32.38;15.88;;;;;;;-2.64;76.62;101573.03;1753812;81;25523;-70
2022/12/02 06:54:31;;;;;;;38.15;24.45;;;;;;;-2.67;76.59;101581.38;1753866;81;25579;-70
2022/12/02 06:57:01;;;;;;;34.33;20.45;;;;;;;-2.71;76.54;101584.89;1753910;81;25615;-70
2022/12/02 06:59:27;;;;;;;34.55;18.62;;;;;;;-2.74;76.59;101583.97;1754195;81;25566;-70
2022/12/02 07:01:57;;;;;;;29.70;13.43;;;;;;;-2.76;76.70;101586.47;1755451;81;27420;-71
2022/12/02 07:04:46;;;;;;;37.15;15.08;;;;;;;-2.80;76.65;101587.36;1755836;81;25200;-70
2022/12/02 07:07:31;;;;;;;20.12;9.60;;;;;;;-2.83;76.66;101582.43;1753993;81;25536;-70
2022/12/02 07:10:03;;;;;;;28.65;13.20;;;;;;;-2.86;76.88;101583.64;1753800;81;26181;-70
2022/12/02 07:12:35;;;;;;;34.75;14.13;;;;;;;-2.87;76.92;101587.80;1753872;81;25543;-70
2022/12/02 07:15:30;;;;;;;32.63;15.55;;;;;;;-2.89;76.79;101591.14;1753751;81;27903;-57
2022/12/02 07:18:07;;;;;;;33.10;15.63;;;;;;;-2.95;76.77;101584.75;1753666;81;25368;-60
2022/12/02 07:20:43;;;;;;;35.08;14.23;;;;;;;-2.99;76.78;101582.69;1752871;81;25535;-60
2022/12/02 07:23:22;;;;;;;31.27;13.53;;;;;;;-3.02;76.96;101584.67;1753758;81;25818;-58
2022/12/02 07:25:56;;;;;;;32.58;15.08;;;;;;;-3.03;76.99;101584.86;1753856;81;25639;-59
2022/12/02 07:28:37;;;;;;;31.42;14.70;;;;;;;-3.06;77.01;101588.72;1753734;81;27553;-60
2022/12/02 07:31:23;;;;;;;30.10;14.63;;;;;;;-3.07;77.28;101586.25;1753637;81;25574;-60
2022/12/02 07:33:51;;;;;;;30.90;13.40;;;;;;;-3.04;77.45;101593.83;1753803;81;25433;-60
2022/12/02 07:36:21;;;;;;;29.63;13.90;;;;;;;-3.03;77.53;101587.03;1753728;81;25863;-60
2022/12/02 07:38:49;;;;;;;38.67;15.95;;;;;;;-3.04;77.47;101585.89;1753751;81;25418;-62
2022/12/02 07:41:15;;;;;;;32.88;15.95;;;;;;;-3.03;77.46;101591.00;1753769;81;27309;-59
2022/12/02 07:43:41;;;;;;;32.25;15.08;;;;;;;-3.03;77.53;101593.64;1753604;81;25479;-58
2022/12/02 07:46:09;;;;;;;32.75;16.45;;;;;;;-3.03;77.64;101593.64;1743440;80;25398;-60
2022/12/02 07:48:35;;;;;;;34.05;15.08;;;;;;;-3.02;77.57;101598.42;1720148;82;25612;-60
2022/12/02 07:51:01;;;;;;;36.50;17.20;;;;;;;-3.04;77.58;101598.61;1720222;82;25637;-56
2022/12/02 07:53:27;;;;;;;33.70;15.55;;;;;;;-3.06;77.59;101597.17;1720216;82;27342;-59
2022/12/02 07:55:54;;;;;;;32.50;14.20;;;;;;;-3.07;77.66;101596.84;1712406;83;25359;-61
2022/12/02 07:58:21;;;;;;;37.13;14.93;;;;;;;-3.09;77.61;101594.38;1712520;83;25484;-62
2022/12/02 08:00:47;;;;;;;35.98;14.95;;;;;;;-3.11;77.56;101597.72;1711777;83;26257;-64
2022/12/02 08:03:14;;;;;;;32.23;13.65;;;;;;;-3.11;77.72;101591.61;1711030;83;25861;-62
2022/12/02 08:05:40;;;;;;;28.20;13.58;;;;;;;-3.11;77.52;101592.94;1711033;83;27360;-63
2022/12/02 08:08:06;;;;;;;39.40;25.25;;;;;;;-3.14;77.42;101592.80;1710902;82;25868;-59
2022/12/02 08:10:32;;;;;;;37.80;15.00;;;;;;;-3.17;77.32;101589.19;1711047;82;25743;-59
2022/12/02 08:12:59;;;;;;;37.20;15.50;;;;;;;-3.20;77.43;101602.30;1710875;83;25701;-58
2022/12/02 08:15:25;;;;;;;33.48;14.98;;;;;;;-3.21;77.40;101601.16;1711131;82;25654;-58
2022/12/02 08:17:51;;;;;;;31.50;15.63;;;;;;;-3.21;77.59;101597.20;1712416;83;27370;-58
2022/12/02 08:20:18;;;;;;;37.83;16.02;;;;;;;-3.20;77.72;101590.91;1756101;81;25530;-59
2022/12/02 08:22:44;;;;;;;33.53;15.50;;;;;;;-3.17;77.89;101593.67;1756183;81;25544;-58
2022/12/02 08:25:10;;;;;;;34.10;15.63;;;;;;;-3.17;77.79;101582.57;1756109;81;25698;-54
2022/12/02 08:27:39;;;;;;;31.23;14.20;;;;;;;-3.17;77.80;101585.22;1756199;81;25452;-53
2022/12/02 08:30:09;;;;;;;34.35;15.35;;;;;;;-3.15;77.78;101585.03;1712457;83;27691;-55
2022/12/02 08:32:36;;;;;;;36.85;16.10;;;;;;;-3.14;77.77;101584.85;1712388;83;25611;-57
2022/12/02 08:35:02;;;;;;;37.50;15.75;;;;;;;-3.12;77.76;101579.37;1712640;83;25453;-53
2022/12/02 08:37:28;;;;;;;35.60;16.60;;;;;;;-3.10;77.89;101585.30;1720264;83;25778;-54
2022/12/02 08:39:54;;;;;;;32.95;15.60;;;;;;;-3.06;78.01;101579.97;1712672;83;25621;-54
2022/12/02 08:42:21;;;;;;;35.47;15.97;;;;;;;-3.04;77.76;101583.23;1712617;83;27868;-55
2022/12/02 08:44:47;;;;;;;98.42;89.20;;;;;;;-3.05;77.67;101581.59;1712618;83;25606;-56
2022/12/02 08:47:13;;;;;;;63.58;56.73;;;;;;;-3.08;77.62;101577.98;1739057;80;25577;-55
2022/12/02 08:49:40;;;;;;;95.40;86.95;;;;;;;-3.07;77.66;101583.09;1748671;80;25906;-55
2022/12/02 08:52:06;;;;;;;85.60;77.12;;;;;;;-3.08;77.52;101584.12;1748600;82;25540;-52
2022/12/02 08:54:32;;;;;;;36.65;16.23;;;;;;;-3.09;77.55;101582.98;1748643;80;27367;-54
2022/12/02 08:56:59;;;;;;;35.23;16.50;;;;;;;-3.05;77.66;101586.40;1717620;83;25625;-54
2022/12/02 08:59:27;;;;;;;36.03;15.78;;;;;;;-3.03;77.58;101584.86;1717776;81;25638;-55
2022/12/02 09:01:54;;;;;;;35.70;16.95;;;;;;;-3.04;77.49;101580.59;1717699;83;26161;-54
2022/12/02 09:04:20;;;;;;;95.77;86.60;;;;;;;-3.07;77.45;101580.45;1717767;83;25657;-53
2022/12/02 09:06:47;;;;;;;59.30;48.38;;;;;;;-3.05;77.68;101580.27;1717723;83;27330;-54
2022/12/02 09:09:13;;;;;;;73.17;65.35;;;;;;;-3.01;77.79;101582.87;1725147;83;25425;-53
2022/12/02 09:11:40;;;;;;;66.28;56.60;;;;;;;-3.04;77.47;101573.97;1756298;81;25607;-55
2022/12/02 09:14:06;;;;;;;103.02;92.75;;;;;;;-3.05;77.42;101581.59;1717611;83;25629;-56
2022/12/02 09:16:33;;;;;;;88.40;79.95;;;;;;;-3.06;77.54;101579.97;1717761;82;25612;-55
2022/12/02 09:18:59;;;;;;;47.67;20.37;;;;;;;-3.06;77.64;101575.99;1717694;83;27404;-55
2022/12/02 09:21:25;;;;;;;87.67;78.20;;;;;;;-3.05;77.70;101580.27;1717532;83;25650;-56
2022/12/02 09:23:51;;;;;;;102.12;92.02;;;;;;;-3.07;77.67;101577.80;1717697;81;25552;-55
2022/12/02 09:26:19;;;;;;;92.88;83.47;;;;;;;-3.04;77.80;101581.41;1717622;83;25652;-53
2022/12/02 09:28:46;;;;;;;56.13;40.67;;;;;;;-3.04;77.72;101579.27;1717750;82;25582;-57
2022/12/02 09:31:13;;;;;;;61.23;51.33;;;;;;;-3.04;77.68;101576.63;1717635;83;27486;-56
2022/12/02 09:33:39;;;;;;;63.42;55.17;;;;;;;-3.03;77.80;101581.73;1717514;83;25594;-54
2022/12/02 09:36:07;;;;;;;89.05;79.32;;;;;;;-3.04;77.57;101576.63;1717650;83;25670;-56
2022/12/02 09:38:33;;;;;;;44.88;19.52;;;;;;;-3.06;77.64;101572.02;1717207;82;25627;-55
2022/12/02 09:41:00;;;;;;;45.80;20.88;;;;;;;-3.02;77.75;101577.25;1716185;83;25785;-52
2022/12/02 09:43:31;;;;;;;48.17;25.05;;;;;;;-3.05;77.60;101573.16;1723848;83;27937;-54
2022/12/02 09:45:58;;;;;;;39.20;18.95;;;;;;;-3.02;77.81;101571.95;1716102;82;27111;-56
2022/12/02 09:48:26;;;;;;;48.05;17.98;;;;;;;-3.03;77.91;101572.47;1716309;81;25651;-55
2022/12/02 09:50:55;;;;;;;28.95;14.05;;;;;;;-2.97;77.75;101577.50;1723882;83;26016;-55
2022/12/02 09:53:25;;;;;;;38.70;17.87;;;;;;;-2.97;77.69;101580.66;1755262;81;25304;-53
2022/12/02 09:55:51;;;;;;;38.85;18.67;;;;;;;-3.00;77.56;101572.58;1717611;83;27343;-53
2022/12/02 09:58:23;;;;;;;41.55;17.90;;;;;;;-2.98;77.59;101571.88;1717548;83;25412;-55
2022/12/02 10:00:53;;;;;;;47.48;18.40;;;;;;;-2.96;77.58;101575.67;1725186;83;25429;-54
2022/12/02 10:03:26;;;;;;;39.98;18.00;;;;;;;-2.95;77.62;101578.64;1756223;81;25612;-55
2022/12/02 10:05:54;;;;;;;39.98;19.40;;;;;;;-2.96;77.60;101569.05;1687145;85;25616;-60
2022/12/02 10:08:26;;;;;;;40.95;17.45;;;;;;;-2.93;77.66;101574.78;1717556;82;27323;-60
2022/12/02 10:10:55;;;;;;;42.98;19.60;;;;;;;-2.91;77.69;101577.25;1717569;82;25394;-57
2022/12/02 10:13:23;;;;;;;32.23;13.20;;;;;;;-2.90;77.81;101572.28;1717743;83;25626;-57
2022/12/02 10:15:51;;;;;;;36.25;17.25;;;;;;;-2.89;77.73;101571.28;1717613;83;25697;-59
2022/12/02 10:18:28;;;;;;;51.23;22.25;;;;;;;-2.90;77.52;101568.31;1717694;82;25640;-57
2022/12/02 10:20:54;;;;;;;50.80;20.48;;;;;;;-2.90;77.60;101573.61;1717600;83;27330;-58
2022/12/02 10:23:26;;;;;;;40.10;18.50;;;;;;;-2.90;77.74;101569.12;1717606;82;25665;-57
2022/12/02 10:26:07;;;;;;;48.58;19.95;;;;;;;-2.89;77.59;101566.80;1717617;82;25562;-58
2022/12/02 10:28:36;;;;;;;47.53;19.45;;;;;;;-2.91;77.38;101571.47;1712677;83;25696;-57
2022/12/02 10:31:11;;;;;;;48.63;17.70;;;;;;;-2.93;77.42;101565.52;1717844;83;25470;-58
2022/12/02 10:33:53;;;;;;;54.77;21.68;;;;;;;-2.96;77.32;101566.41;1717183;83;27397;-60
2022/12/02 10:36:39;;;;;;;47.03;21.05;;;;;;;-2.95;77.43;101572.02;1717573;83;27190;-61
2022/12/02 10:39:34;;;;;;;40.55;19.60;;;;;;;-2.94;77.70;101560.44;1717704;83;25399;-61
2022/12/02 10:42:12;;;;;;;47.30;18.67;;;;;;;-2.89;77.84;101566.80;1717615;83;25577;-60
2022/12/02 10:44:42;;;;;;;47.05;20.10;;;;;;;-2.90;77.67;101554.55;1717675;82;25439;-61
2022/12/02 10:47:19;;;;;;;50.60;21.55;;;;;;;-2.90;77.51;101559.04;1729689;82;27319;-61
2022/12/02 10:49:57;;;;;;;52.43;20.43;;;;;;;-2.90;77.44;101561.69;1712353;82;25671;-55
2022/12/02 10:52:33;;;;;;;42.75;18.95;;;;;;;-2.90;77.43;101565.15;1712295;83;25595;-57
2022/12/02 10:55:03;;;;;;;41.92;19.73;;;;;;;-2.91;77.46;101564.85;1710830;83;26390;-55
2022/12/02 10:57:31;;;;;;;;;;;;;;;-2.90;77.31;101559.04;1701277;83;26366;-53
2022/12/02 11:00:03;;;;;;;37.58;16.05;;;;;;;-2.94;77.05;101559.12;1711022;83;27976;-56
2022/12/02 11:02:48;;;;;;;37.17;17.12;;;;;;;-2.99;77.00;101557.53;1710968;83;25710;-57
2022/12/02 11:05:30;;;;;;;41.83;16.67;;;;;;;-3.03;77.08;101560.55;1709661;83;25742;-53
2022/12/02 11:08:04;;;;;;;43.13;17.32;;;;;;;-3.06;77.04;101560.92;1712301;83;25616;-54
2022/12/02 11:10:38;;;;;;;46.55;19.55;;;;;;;-3.05;77.34;101557.28;1712312;83;25634;-55
2022/12/02 11:13:16;;;;;;;41.92;19.55;;;;;;;-3.03;77.54;101559.70;1712284;83;27278;-54
2022/12/02 11:15:52;;;;;;;43.85;18.70;;;;;;;-3.01;77.61;101564.34;1710739;83;25757;-56
2022/12/02 11:18:33;;;;;;;38.40;17.23;;;;;;;-2.97;77.72;101559.48;1722599;83;25413;-56
2022/12/02 11:21:15;;;;;;;69.32;56.88;;;;;;;-2.98;77.73;101553.86;1712255;83;26330;-54
2022/12/02 11:23:42;;;;;;;55.88;33.40;;;;;;;-2.97;77.58;101553.67;1722566;83;25502;-57
2022/12/02 11:26:11;;;;;;;103.15;92.12;;;;;;;-2.98;77.54;101557.31;1722649;82;27450;-53
2022/12/02 11:29:15;;;;;;;105.90;95.30;;;;;;;-2.97;77.61;101552.35;1722592;82;25517;-57
2022/12/02 11:31:44;;;;;;;101.78;91.53;;;;;;;-2.98;77.52;101549.38;1745937;82;25564;-58